Time;durP1;ratioP1;P1;durP2;ratioP2;P2;SDS_P1;SDS_P2;PMS_P1;PMS_P2;Temp;Humidity;BMP_temperature;BMP_pressure;BME280_temperature;BME280_humidity;BME280_pressure;Samples;Min_cycle;Max_cycle;Signal;HPM_P1;HPM_P2
2020/12/05 00:01:50;;;;;;;37.00;16.55;;;;;;;1.70;94.56;99146.03;6176085;28;20500;-71
2020/12/05 00:04:51;;;;;;;33.63;15.25;;;;;;;1.63;93.40;99119.56;6176071;28;20061;-71
2020/12/05 00:07:52;;;;;;;34.00;15.38;;;;;;;1.59;93.54;99109.41;6175645;28;20058;-71
2020/12/05 00:10:53;;;;;;;29.88;14.70;;;;;;;1.57;93.24;99096.53;6175728;28;20504;-71
2020/12/05 00:13:54;;;;;;;38.30;17.08;;;;;;;1.53;93.52;99098.41;6175792;28;20058;-71
2020/12/05 00:16:55;;;;;;;33.45;15.43;;;;;;;1.49;93.28;99111.53;6175081;28;20055;-72
2020/12/05 00:19:57;;;;;;;38.88;16.27;;;;;;;1.42;93.75;99116.16;6151941;28;20047;-72
2020/12/05 00:22:58;;;;;;;35.42;15.95;;;;;;;1.41;94.10;99121.38;6168309;28;20412;-71
2020/12/05 00:25:58;;;;;;;36.28;16.80;;;;;;;1.40;93.83;99127.47;6175440;28;20074;-71
2020/12/05 00:28:59;;;;;;;35.40;16.23;;;;;;;1.44;94.52;99111.75;6174633;28;20043;-71
2020/12/05 00:32:01;;;;;;;35.03;16.27;;;;;;;1.47;94.38;99124.56;6175525;28;20051;-72
2020/12/05 00:35:03;;;;;;;40.40;16.85;;;;;;;1.46;94.29;99135.81;6175020;28;20063;-71
2020/12/05 00:38:03;;;;;;;30.83;15.60;;;;;;;1.43;94.14;99138.53;6174985;28;20058;-72
2020/12/05 00:41:04;;;;;;;35.95;16.70;;;;;;;1.38;94.02;99124.09;6174672;28;20121;-71
2020/12/05 00:44:06;;;;;;;36.75;16.90;;;;;;;1.35;94.21;99132.81;6175028;28;20408;-71
2020/12/05 00:47:06;;;;;;;36.42;16.30;;;;;;;1.38;94.80;99139.63;6174631;28;20061;-72
2020/12/05 00:50:08;;;;;;;32.70;16.45;;;;;;;1.35;93.86;99142.34;6174726;28;20058;-71
2020/12/05 00:53:09;;;;;;;42.25;17.80;;;;;;;1.29;94.25;99138.28;6174300;28;20440;-72
2020/12/05 00:56:10;;;;;;;40.20;18.98;;;;;;;1.30;95.38;99139.09;6174518;28;20055;-72
2020/12/05 00:59:11;;;;;;;40.60;18.17;;;;;;;1.31;94.59;99145.97;6174407;28;20049;-72
2020/12/05 01:02:12;;;;;;;41.63;19.02;;;;;;;1.32;94.71;99145.91;6174560;28;20058;-72
2020/12/05 01:05:13;;;;;;;41.50;19.08;;;;;;;1.28;93.77;99152.13;6174589;28;20463;-72
2020/12/05 01:08:14;;;;;;;40.05;18.45;;;;;;;1.35;94.11;99142.34;6200835;23;20075;-73
2020/12/05 01:11:17;;;;;;;37.97;18.27;;;;;;;1.40;94.25;99149.00;6197988;28;20046;-72
2020/12/05 01:14:18;;;;;;;35.67;17.48;;;;;;;1.40;94.02;99148.16;6196005;28;20062;-73
2020/12/05 01:17:23;;;;;;;35.60;17.42;;;;;;;1.40;94.19;99159.34;6198231;28;20050;-73
2020/12/05 01:20:24;;;;;;;36.65;16.98;;;;;;;1.43;94.87;99156.66;6197952;28;20050;-73
2020/12/05 01:23:25;;;;;;;38.13;18.17;;;;;;;1.43;93.93;99156.66;6177808;28;20415;-74
2020/12/05 01:26:26;;;;;;;33.90;17.65;;;;;;;1.42;93.87;99141.19;6173936;28;20051;-73
2020/12/05 01:29:27;;;;;;;39.60;19.17;;;;;;;1.31;93.13;99139.03;6190258;28;20050;-73
2020/12/05 01:32:28;;;;;;;41.70;19.65;;;;;;;1.32;93.93;99139.88;6198154;28;20142;-73
2020/12/05 01:35:29;;;;;;;35.28;18.20;;;;;;;1.37;94.28;99125.84;6198011;28;20061;-73
2020/12/05 01:38:30;;;;;;;40.13;20.48;;;;;;;1.39;93.64;99128.38;6197631;28;20069;-73
2020/12/05 01:41:31;;;;;;;40.50;20.55;;;;;;;1.35;94.04;99144.94;6197606;28;20046;-73
2020/12/05 01:44:32;;;;;;;48.15;22.88;;;;;;;1.31;94.20;99136.44;6198148;28;20053;-72
2020/12/05 01:47:33;;;;;;;44.03;21.52;;;;;;;1.29;94.02;99152.97;6197590;28;20073;-72
2020/12/05 01:50:35;;;;;;;39.40;19.63;;;;;;;1.32;94.58;99155.41;6197560;28;20057;-72
2020/12/05 01:53:36;;;;;;;37.25;19.45;;;;;;;1.34;94.05;99157.03;6173834;28;20057;-72
2020/12/05 01:56:37;;;;;;;41.10;19.42;;;;;;;1.27;94.11;99165.94;6173663;28;20055;-72
2020/12/05 01:59:38;;;;;;;34.70;18.05;;;;;;;1.29;94.76;99179.66;6173180;28;20074;-72
2020/12/05 02:02:39;;;;;;;39.30;19.08;;;;;;;1.29;95.08;99171.91;6173573;28;20086;-73
2020/12/05 02:06:00;;;;;;;38.42;19.75;;;;;;;1.25;95.11;99180.69;6173565;28;20082;-72
2020/12/05 02:09:05;;;;;;;37.45;19.27;;;;;;;1.22;94.88;99163.53;6173168;28;20086;-72
2020/12/05 02:12:16;;;;;;;45.75;20.67;;;;;;;1.20;94.53;99173.13;6173478;28;20054;-72
2020/12/05 02:15:22;;;;;;;39.00;19.50;;;;;;;1.23;94.69;99175.59;6173738;28;20059;-72
2020/12/05 02:18:25;;;;;;;38.72;20.13;;;;;;;1.21;94.73;99173.97;6172996;28;20388;-72
2020/12/05 02:21:29;;;;;;;42.90;20.80;;;;;;;1.19;94.97;99166.28;6172932;28;20070;-73
2020/12/05 02:24:31;;;;;;;39.15;19.73;;;;;;;1.25;95.33;99155.66;6173406;28;20058;-72
2020/12/05 02:27:33;;;;;;;41.03;19.45;;;;;;;1.27;95.12;99138.34;6177219;28;20055;-72
2020/12/05 02:30:35;;;;;;;43.42;21.05;;;;;;;1.26;94.49;99133.22;6198977;28;20046;-72
2020/12/05 02:33:35;;;;;;;41.40;19.95;;;;;;;1.23;93.81;99131.59;6202219;28;20077;-73
2020/12/05 02:36:39;;;;;;;42.40;21.50;;;;;;;1.22;93.95;99150.59;6202069;28;20046;-73
2020/12/05 02:39:43;;;;;;;38.70;19.98;;;;;;;1.23;93.54;99139.38;6201670;28;20049;-72
2020/12/05 02:42:43;;;;;;;35.30;18.77;;;;;;;1.24;93.60;99151.41;6202143;28;20492;-72
2020/12/05 02:45:44;;;;;;;39.88;20.00;;;;;;;1.17;93.82;99155.13;6202110;28;20056;-72
2020/12/05 02:48:45;;;;;;;41.35;21.08;;;;;;;1.15;93.48;99154.34;6201319;28;20050;-73
2020/12/05 02:51:46;;;;;;;44.30;20.38;;;;;;;1.14;94.47;99155.28;6202050;28;20526;-73
2020/12/05 02:54:48;;;;;;;42.10;21.55;;;;;;;1.10;93.82;99143.34;6201628;28;20054;-73
2020/12/05 02:57:48;;;;;;;44.88;22.45;;;;;;;1.11;94.15;99142.44;6198920;28;20069;-73
2020/12/05 03:00:49;;;;;;;44.25;21.40;;;;;;;1.14;94.89;99125.97;6176925;28;20134;-73
2020/12/05 03:03:50;;;;;;;45.85;22.42;;;;;;;1.12;94.72;99112.25;6177683;28;20051;-71
2020/12/05 03:06:51;;;;;;;44.95;23.05;;;;;;;1.17;94.90;99112.91;6177463;28;20078;-73
2020/12/05 03:09:52;;;;;;;41.10;21.48;;;;;;;1.17;94.48;99102.53;6200773;28;20153;-73
2020/12/05 03:12:53;;;;;;;49.97;23.33;;;;;;;1.15;94.19;99102.63;6201287;28;20054;-73
2020/12/05 03:15:54;;;;;;;43.45;22.85;;;;;;;1.20;94.04;99103.25;6200660;28;20201;-73
2020/12/05 03:18:55;;;;;;;42.55;20.88;;;;;;;1.23;94.08;99099.72;6200537;28;20058;-73
2020/12/05 03:21:56;;;;;;;46.55;23.52;;;;;;;1.22;93.92;99100.59;6201211;28;20132;-73
2020/12/05 03:24:57;;;;;;;41.40;21.98;;;;;;;1.22;94.00;99121.31;6201045;28;20046;-73
2020/12/05 03:27:58;;;;;;;43.88;21.80;;;;;;;1.16;93.90;99137.09;6200754;28;20057;-72
2020/12/05 03:30:59;;;;;;;42.72;21.50;;;;;;;1.19;94.06;99153.34;6200705;28;20047;-73
2020/12/05 03:34:00;;;;;;;46.28;22.48;;;;;;;1.10;94.63;99153.72;6200788;28;20046;-73
2020/12/05 03:37:01;;;;;;;42.20;21.77;;;;;;;1.13;94.36;99165.66;6190413;28;20066;-72
2020/12/05 03:40:04;;;;;;;42.00;22.08;;;;;;;1.12;94.14;99170.00;6175911;28;20130;-73
2020/12/05 03:43:05;;;;;;;44.70;22.75;;;;;;;1.14;94.31;99165.63;6176488;28;20062;-73
2020/12/05 03:46:06;;;;;;;43.17;21.85;;;;;;;1.06;94.38;99167.66;6176322;28;20515;-72
2020/12/05 03:49:06;;;;;;;46.67;24.15;;;;;;;1.02;94.42;99159.19;6175635;28;20053;-73
2020/12/05 03:52:08;;;;;;;44.50;23.02;;;;;;;1.05;94.81;99172.91;6176417;28;20507;-73
2020/12/05 03:55:11;;;;;;;44.03;22.50;;;;;;;1.05;94.51;99167.72;6176066;28;20055;-73
2020/12/05 03:58:12;;;;;;;42.72;22.63;;;;;;;1.01;94.11;99172.19;6176124;28;20054;-73
2020/12/05 04:01:12;;;;;;;43.45;22.40;;;;;;;0.99;94.13;99172.22;6175583;28;20046;-72
2020/12/05 04:04:13;;;;;;;49.13;24.40;;;;;;;1.03;94.76;99175.53;6176318;28;20125;-72
2020/12/05 04:07:14;;;;;;;46.72;23.00;;;;;;;1.02;94.12;99174.69;6175656;28;20051;-72
2020/12/05 04:10:16;;;;;;;45.13;23.52;;;;;;;1.00;94.64;99180.84;6175545;28;20053;-72
2020/12/05 04:13:17;;;;;;;50.40;22.80;;;;;;;1.00;94.81;99180.84;6175898;28;20055;-72
2020/12/05 04:16:17;;;;;;;53.30;23.42;;;;;;;0.98;95.22;99177.47;6175687;28;20072;-73
2020/12/05 04:19:18;;;;;;;48.97;24.25;;;;;;;0.99;94.34;99187.75;6175299;28;20046;-72
2020/12/05 04:22:19;;;;;;;46.58;24.23;;;;;;;0.98;94.78;99188.66;6175616;28;20385;-73
2020/12/05 04:25:22;;;;;;;48.28;24.08;;;;;;;0.99;94.24;99195.50;6175770;28;20047;-73
2020/12/05 04:28:23;;;;;;;45.00;22.17;;;;;;;0.92;94.58;99201.00;6175130;28;20058;-73
2020/12/05 04:31:23;;;;;;;45.75;22.58;;;;;;;0.85;95.34;99210.72;6175009;28;20054;-73
2020/12/05 04:34:24;;;;;;;52.90;25.17;;;;;;;0.85;95.91;99215.88;6175410;28;20051;-73
2020/12/05 04:37:25;;;;;;;52.92;24.00;;;;;;;0.84;96.15;99218.53;6175405;28;20102;-73
2020/12/05 04:40:27;;;;;;;48.00;24.77;;;;;;;0.84;96.58;99221.97;6174617;28;20388;-73
2020/12/05 04:43:28;;;;;;;54.95;25.52;;;;;;;0.76;97.19;99211.06;6175335;28;20050;-73
2020/12/05 04:46:32;;;;;;;50.65;24.48;;;;;;;0.82;97.58;99199.63;6174822;28;20424;-73
2020/12/05 04:49:36;;;;;;;50.28;24.98;;;;;;;0.85;97.48;99189.19;6173980;28;20053;-73
2020/12/05 04:52:46;;;;;;;52.38;25.20;;;;;;;0.88;97.70;99174.41;6175161;28;20051;-73
2020/12/05 04:55:49;;;;;;;52.15;24.50;;;;;;;0.90;98.24;99161.41;6174787;28;20051;-73
2020/12/05 04:58:50;;;;;;;52.63;25.05;;;;;;;0.95;97.84;99180.16;6174374;28;20050;-73
2020/12/05 05:01:51;;;;;;;56.97;27.23;;;;;;;0.98;98.17;99178.31;6174639;28;20055;-73
2020/12/05 05:04:52;;;;;;;54.85;25.40;;;;;;;0.99;98.31;99168.78;6180721;28;20157;-73
2020/12/05 05:07:54;;;;;;;47.10;23.88;;;;;;;1.04;99.00;99161.69;6198186;28;20046;-73
2020/12/05 05:11:07;;;;;;;48.40;23.92;;;;;;;1.04;98.63;99155.69;6198284;28;20418;-73
2020/12/05 05:14:13;;;;;;;50.10;25.02;;;;;;;0.99;98.03;99145.53;6198644;28;20054;-73
2020/12/05 05:17:14;;;;;;;46.63;23.33;;;;;;;0.95;97.91;99146.53;6198362;28;20046;-73
2020/12/05 05:20:20;;;;;;;53.65;24.95;;;;;;;1.00;98.68;99147.22;6197959;28;20050;-73
2020/12/05 05:23:21;;;;;;;57.08;26.83;;;;;;;1.05;99.31;99154.81;6198307;28;20461;-73
2020/12/05 05:26:23;;;;;;;53.42;26.67;;;;;;;1.06;99.87;99157.31;6198097;28;20176;-73
2020/12/05 05:29:26;;;;;;;54.67;27.00;;;;;;;1.11;99.61;99155.38;6197967;28;20057;-73
2020/12/05 05:32:28;;;;;;;55.75;28.42;;;;;;;1.09;100.00;99170.13;6198119;28;20147;-73
2020/12/05 05:35:36;;;;;;;51.67;25.50;;;;;;;1.09;100.00;99179.63;6197665;28;20050;-73
2020/12/05 05:38:37;;;;;;;51.67;23.73;;;;;;;1.10;99.68;99166.63;6194196;28;20062;-73
2020/12/05 05:41:45;;;;;;;50.67;26.35;;;;;;;1.12;99.86;99179.50;6180947;28;20059;-73
2020/12/05 05:44:46;;;;;;;51.33;25.40;;;;;;;1.16;99.72;99194.84;6173943;28;20057;-73
2020/12/05 05:47:49;;;;;;;48.65;24.38;;;;;;;1.14;99.98;99191.50;6173414;28;20059;-73
2020/12/05 05:50:49;;;;;;;48.70;24.98;;;;;;;1.07;99.72;99195.22;6173377;28;20385;-73
2020/12/05 05:53:50;;;;;;;43.35;24.15;;;;;;;1.13;99.96;99207.88;6173590;28;20050;-73
2020/12/05 05:57:08;;;;;;;51.45;25.30;;;;;;;1.05;100.00;99204.78;6173694;28;20423;-73
2020/12/05 06:00:09;;;;;;;50.88;25.05;;;;;;;1.10;100.00;99213.19;6172637;28;20435;-73
2020/12/05 06:03:19;;;;;;;52.35;25.05;;;;;;;1.13;100.00;99222.56;6173853;28;20113;-73
2020/12/05 06:06:20;;;;;;;54.25;25.73;;;;;;;1.14;100.00;99239.81;6194874;28;20062;-73
2020/12/05 06:09:26;;;;;;;53.90;26.45;;;;;;;1.06;100.00;99250.44;6197328;28;20491;-73
2020/12/05 06:12:33;;;;;;;47.85;25.58;;;;;;;1.04;100.00;99261.72;6197573;28;20046;-73
2020/12/05 06:15:35;;;;;;;55.90;26.40;;;;;;;0.94;100.00;99261.25;6197414;28;20412;-73
2020/12/05 06:18:36;;;;;;;51.00;25.88;;;;;;;0.91;100.00;99263.94;6196680;28;20057;-73
2020/12/05 06:21:41;;;;;;;52.92;25.77;;;;;;;0.86;100.00;99258.09;6197371;28;20109;-73
2020/12/05 06:24:49;;;;;;;52.17;25.50;;;;;;;0.81;100.00;99247.94;6197486;28;20054;-73
2020/12/05 06:27:57;;;;;;;51.00;26.02;;;;;;;0.84;100.00;99249.56;6196943;28;20400;-73
2020/12/05 06:30:58;;;;;;;55.75;26.90;;;;;;;0.84;100.00;99242.66;6196989;28;20507;-74
2020/12/05 06:33:59;;;;;;;50.67;26.10;;;;;;;0.87;100.00;99252.88;6196814;28;20057;-73
2020/12/05 06:37:00;;;;;;;57.13;25.13;;;;;;;0.91;100.00;99253.59;6190947;28;20126;-73
2020/12/05 06:40:01;;;;;;;56.78;27.83;;;;;;;0.90;100.00;99249.31;6194046;28;20053;-73
2020/12/05 06:43:11;;;;;;;54.72;26.83;;;;;;;0.87;100.00;99246.88;6197347;28;20061;-73
2020/12/05 06:46:45;;;;;;;51.85;24.98;;;;;;;0.80;100.00;99253.16;6196909;28;20050;-73
2020/12/05 06:49:53;;;;;;;53.83;26.05;;;;;;;0.76;100.00;99248.09;6196843;28;20053;-73
2020/12/05 06:52:54;;;;;;;51.70;25.85;;;;;;;0.77;100.00;99254.13;6197310;28;20051;-73
2020/12/05 06:55:55;;;;;;;57.45;26.38;;;;;;;0.79;100.00;99298.03;6196918;28;20058;-73
2020/12/05 06:58:57;;;;;;;53.85;27.48;;;;;;;0.85;100.00;99296.03;6196666;28;20519;-73
2020/12/05 07:01:58;;;;;;;52.90;25.75;;;;;;;0.88;100.00;99328.72;6197118;28;20050;-73
2020/12/05 07:05:23;;;;;;;61.35;28.60;;;;;;;0.91;100.00;99359.63;6182063;28;20476;-74
2020/12/05 07:11:27;;;;;;;58.78;27.30;;;;;;;0.91;100.00;99378.59;6241301;22;20662;-73
2020/12/05 07:14:28;;;;;;;53.67;25.70;;;;;;;0.95;100.00;99381.88;6225085;28;20065;-73
2020/12/05 07:17:29;;;;;;;53.60;26.38;;;;;;;0.97;100.00;99393.88;6222810;28;20078;-73
2020/12/05 07:20:30;;;;;;;57.97;28.48;;;;;;;0.99;100.00;99381.72;6200657;28;20507;-73
2020/12/05 07:23:32;;;;;;;63.78;28.58;;;;;;;1.01;100.00;99379.94;6201316;28;20046;-74
2020/12/05 07:26:34;;;;;;;55.33;26.20;;;;;;;1.04;100.00;99375.53;6200849;28;20057;-73
2020/12/05 07:29:35;;;;;;;53.70;26.17;;;;;;;1.07;100.00;99373.69;6200350;28;20055;-73
2020/12/05 07:32:38;;;;;;;54.55;27.00;;;;;;;1.13;100.00;99376.03;6201216;28;20053;-73
2020/12/05 07:35:39;;;;;;;51.08;26.67;;;;;;;1.16;100.00;99375.94;6223659;28;20046;-73
2020/12/05 07:38:42;;;;;;;51.85;26.92;;;;;;;1.13;100.00;99385.56;6224667;28;20057;-73
2020/12/05 07:41:50;;;;;;;59.55;27.15;;;;;;;1.10;100.00;99383.09;6225145;28;20053;-73
2020/12/05 07:44:52;;;;;;;52.75;26.25;;;;;;;1.13;100.00;99376.03;6224858;28;20080;-73
2020/12/05 07:47:52;;;;;;;52.60;24.17;;;;;;;1.12;100.00;99370.94;6224843;28;20050;-73
2020/12/05 07:50:53;;;;;;;53.13;26.70;;;;;;;1.13;100.00;99377.78;6224291;28;20065;-73
2020/12/05 07:53:54;;;;;;;48.22;26.00;;;;;;;1.15;100.00;99378.59;6224837;28;20103;-74
2020/12/05 07:57:06;;;;;;;54.13;26.42;;;;;;;1.14;100.00;99397.63;6224311;28;20103;-73
2020/12/05 08:00:09;;;;;;;56.78;28.33;;;;;;;1.09;100.00;99413.31;6224348;28;20053;-74
2020/12/05 08:03:28;;;;;;;58.72;26.90;;;;;;;1.07;100.00;99425.44;6224260;28;20052;-74
2020/12/05 08:06:53;;;;;;;46.42;23.77;;;;;;;1.11;100.00;99426.19;6224425;28;20049;-73
2020/12/05 08:09:54;;;;;;;50.63;25.55;;;;;;;1.13;100.00;99422.63;6223886;28;20042;-73
2020/12/05 08:13:20;;;;;;;49.20;24.75;;;;;;;1.18;100.00;99432.78;6224048;28;20080;-74
2020/12/05 08:16:22;;;;;;;58.08;25.92;;;;;;;1.18;100.00;99449.19;6224411;28;20061;-75
2020/12/05 08:19:23;;;;;;;58.60;27.65;;;;;;;1.21;100.00;99467.16;6223396;28;20064;-73
2020/12/05 08:22:26;;;;;;;45.55;23.40;;;;;;;1.23;100.00;99462.81;6222741;28;20077;-73
2020/12/05 08:25:27;;;;;;;52.35;25.60;;;;;;;1.28;100.00;99462.63;6223412;28;20053;-73
2020/12/05 08:28:30;;;;;;;47.47;24.75;;;;;;;1.29;100.00;99472.09;6223552;28;20050;-72
2020/12/05 08:31:32;;;;;;;48.45;23.52;;;;;;;1.26;100.00;99500.66;6223686;28;20050;-72
2020/12/05 08:34:33;;;;;;;49.67;24.15;;;;;;;1.30;100.00;99522.09;6223538;28;20057;-72
2020/12/05 08:37:35;;;;;;;55.38;24.25;;;;;;;1.37;100.00;99515.81;6223683;28;20053;-72
2020/12/05 08:40:35;;;;;;;50.67;24.35;;;;;;;1.42;100.00;99529.44;6223158;28;20052;-72
2020/12/05 08:43:36;;;;;;;51.25;23.48;;;;;;;1.43;100.00;99528.53;6223970;28;20422;-72
2020/12/05 08:46:38;;;;;;;50.40;23.48;;;;;;;1.45;100.00;99540.53;6223430;28;20108;-72
2020/12/05 08:49:41;;;;;;;48.22;23.52;;;;;;;1.55;100.00;99551.41;6223151;28;20526;-72
2020/12/05 08:52:42;;;;;;;50.80;24.52;;;;;;;1.54;100.00;99547.09;6223600;28;20050;-72
2020/12/05 08:55:47;;;;;;;46.75;23.35;;;;;;;1.57;100.00;99561.69;6223342;28;20069;-72
2020/12/05 08:58:48;;;;;;;50.90;23.63;;;;;;;1.61;100.00;99565.88;6222779;28;20056;-72
2020/12/05 09:01:53;;;;;;;44.97;23.15;;;;;;;1.69;100.00;99569.88;6223073;28;20486;-72
2020/12/05 09:05:01;;;;;;;45.60;22.20;;;;;;;1.69;100.00;99559.50;6222985;28;20060;-72
2020/12/05 09:08:02;;;;;;;47.65;21.80;;;;;;;1.70;100.00;99558.59;6216341;28;20525;-72
2020/12/05 09:11:02;;;;;;;51.38;23.90;;;;;;;1.75;100.00;99543.75;6208509;28;20062;-71
2020/12/05 09:14:03;;;;;;;56.53;24.73;;;;;;;1.81;100.00;99550.44;6217592;28;20053;-72
2020/12/05 09:17:22;;;;;;;48.85;22.65;;;;;;;1.89;100.00;99569.13;6222245;28;20507;-72
2020/12/05 09:20:23;;;;;;;47.20;23.55;;;;;;;1.90;100.00;99594.13;6222656;28;20046;-72
2020/12/05 09:23:29;;;;;;;43.58;21.00;;;;;;;1.95;100.00;99601.72;6222367;28;20065;-72
2020/12/05 09:26:30;;;;;;;47.60;21.70;;;;;;;2.00;100.00;99610.22;6222594;28;20054;-72
2020/12/05 09:29:30;;;;;;;46.35;21.20;;;;;;;2.03;100.00;99615.25;6222265;28;20625;-72
2020/12/05 09:32:44;;;;;;;46.60;21.92;;;;;;;2.08;100.00;99625.47;6222573;28;20056;-72
2020/12/05 09:35:46;;;;;;;45.33;20.55;;;;;;;2.08;100.00;99620.28;6222249;28;20057;-72
2020/12/05 09:38:47;;;;;;;46.67;19.88;;;;;;;2.08;100.00;99610.75;6221605;28;20057;-71
2020/12/05 09:41:47;;;;;;;40.42;18.60;;;;;;;2.10;100.00;99608.97;6213902;28;20396;-72
2020/12/05 09:44:48;;;;;;;37.70;18.20;;;;;;;2.13;100.00;99611.41;6222375;28;20054;-71
2020/12/05 09:47:50;;;;;;;41.33;18.02;;;;;;;2.18;100.00;99626.81;6222181;28;20054;-72
2020/12/05 09:50:51;;;;;;;46.00;20.05;;;;;;;2.21;100.00;99642.25;6221885;28;20053;-72
2020/12/05 09:53:52;;;;;;;44.67;18.85;;;;;;;2.24;100.00;99636.97;6222062;28;20049;-72
2020/12/05 09:56:53;;;;;;;41.67;18.73;;;;;;;2.28;100.00;99633.34;6221886;28;20057;-72
2020/12/05 09:59:54;;;;;;;37.53;18.35;;;;;;;2.31;100.00;99625.44;6221408;28;20045;-72
2020/12/05 10:02:56;;;;;;;43.13;20.15;;;;;;;2.36;100.00;99627.88;6222325;28;20045;-72
2020/12/05 10:05:57;;;;;;;47.45;19.85;;;;;;;2.46;100.00;99639.59;6221563;28;20050;-72
2020/12/05 10:08:58;;;;;;;48.95;22.05;;;;;;;2.60;100.00;99647.69;6221229;28;20050;-72
2020/12/05 10:11:59;;;;;;;49.70;20.55;;;;;;;2.68;100.00;99637.88;6221883;28;20046;-72
2020/12/05 10:15:00;;;;;;;41.63;19.52;;;;;;;2.73;100.00;99643.72;6221919;28;20049;-72
2020/12/05 10:18:01;;;;;;;53.03;20.88;;;;;;;2.74;100.00;99639.38;6221515;28;20430;-72
2020/12/05 10:21:02;;;;;;;43.13;20.52;;;;;;;2.72;100.00;99641.16;6219506;28;20049;-72
2020/12/05 10:24:03;;;;;;;38.83;19.75;;;;;;;2.81;100.00;99643.41;6220592;28;20069;-73
2020/12/05 10:27:04;;;;;;;43.33;20.50;;;;;;;2.85;100.00;99647.56;6221674;28;20422;-74
2020/12/05 10:30:07;;;;;;;49.55;20.63;;;;;;;3.01;100.00;99637.44;6221177;28;20053;-73
2020/12/05 10:33:08;;;;;;;49.58;22.30;;;;;;;3.08;100.00;99640.63;6211106;28;20042;-73
2020/12/05 10:36:09;;;;;;;43.42;20.58;;;;;;;3.08;100.00;99651.00;6217983;28;20061;-72
2020/12/05 10:39:11;;;;;;;48.67;22.08;;;;;;;3.01;100.00;99643.47;6212709;28;20054;-72
2020/12/05 10:42:12;;;;;;;53.55;22.88;;;;;;;3.02;100.00;99632.19;6221641;28;20050;-73
2020/12/05 10:45:12;;;;;;;43.90;21.33;;;;;;;3.16;100.00;99636.81;6216505;28;20410;-72
2020/12/05 10:48:14;;;;;;;47.38;21.88;;;;;;;3.21;100.00;99640.06;6224930;28;20053;-73
2020/12/05 10:51:15;;;;;;;47.80;20.38;;;;;;;3.31;100.00;99656.09;6225776;28;20050;-74
2020/12/05 10:54:16;;;;;;;54.15;22.83;;;;;;;3.37;100.00;99662.81;6226313;28;20073;-73
2020/12/05 10:57:17;;;;;;;45.03;22.02;;;;;;;3.40;100.00;99658.31;6225776;28;20086;-74
2020/12/05 11:00:18;;;;;;;51.90;22.55;;;;;;;3.42;100.00;99666.91;6225826;28;20049;-74
2020/12/05 11:03:19;;;;;;;44.13;21.67;;;;;;;3.48;100.00;99671.84;6226084;28;20053;-74
2020/12/05 11:06:21;;;;;;;45.90;20.40;;;;;;;3.47;100.00;99664.97;6225222;28;20061;-74
2020/12/05 11:09:22;;;;;;;42.15;20.50;;;;;;;3.55;100.00;99649.06;6208720;28;20050;-74
2020/12/05 11:12:23;;;;;;;50.33;22.77;;;;;;;3.62;100.00;99645.28;6200983;28;20057;-74
2020/12/05 11:15:24;;;;;;;46.53;22.17;;;;;;;3.66;100.00;99648.59;6201387;28;20526;-74
2020/12/05 11:18:26;;;;;;;43.25;21.38;;;;;;;3.68;100.00;99639.84;6200898;28;20104;-75
2020/12/05 11:21:27;;;;;;;48.88;22.95;;;;;;;3.70;100.00;99657.94;6200865;28;20049;-73
2020/12/05 11:24:28;;;;;;;42.80;19.75;;;;;;;3.71;100.00;99659.63;6200801;28;20054;-74
2020/12/05 11:27:28;;;;;;;46.42;21.65;;;;;;;3.73;100.00;99663.03;6200879;28;20519;-73
2020/12/05 11:30:29;;;;;;;50.10;22.10;;;;;;;3.79;100.00;99681.78;6200433;28;20061;-72
2020/12/05 11:33:31;;;;;;;45.95;21.60;;;;;;;3.86;100.00;99713.56;6201085;28;20125;-73
2020/12/05 11:36:32;;;;;;;37.70;18.75;;;;;;;3.90;100.00;99729.84;6208462;28;20422;-73
2020/12/05 11:39:33;;;;;;;38.50;19.55;;;;;;;3.90;100.00;99737.66;6224764;28;20052;-73
2020/12/05 11:42:34;;;;;;;38.17;19.73;;;;;;;3.90;100.00;99741.09;6225171;28;20054;-73
2020/12/05 11:45:35;;;;;;;40.60;18.92;;;;;;;4.01;100.00;99740.66;6224630;28;20057;-73
2020/12/05 11:48:36;;;;;;;38.95;20.80;;;;;;;4.03;100.00;99736.22;6224263;28;20053;-73
2020/12/05 11:51:38;;;;;;;39.75;20.48;;;;;;;4.03;100.00;99731.03;6224668;28;20046;-73
2020/12/05 11:54:39;;;;;;;40.88;20.90;;;;;;;4.00;100.00;99739.81;6224585;28;20054;-73
2020/12/05 11:57:40;;;;;;;38.33;18.58;;;;;;;4.05;100.00;99739.63;6224241;28;20529;-74
2020/12/05 12:00:40;;;;;;;39.08;19.70;;;;;;;4.04;100.00;99735.31;6224148;28;20554;-73
2020/12/05 12:03:42;;;;;;;39.70;19.67;;;;;;;4.07;100.00;99735.19;6224736;28;20060;-73
2020/12/05 12:06:43;;;;;;;40.17;19.40;;;;;;;4.06;100.00;99747.34;6223677;28;20534;-73
2020/12/05 12:09:44;;;;;;;36.65;19.55;;;;;;;4.10;100.00;99755.84;6224074;28;20050;-73
2020/12/05 12:12:45;;;;;;;31.05;17.17;;;;;;;4.12;100.00;99760.97;6224096;28;20065;-73
2020/12/05 12:15:46;;;;;;;36.72;18.85;;;;;;;4.19;100.00;99745.06;6224278;28;20085;-73
2020/12/05 12:18:48;;;;;;;31.85;18.17;;;;;;;4.17;100.00;99733.03;6223381;28;20050;-73
2020/12/05 12:21:49;;;;;;;35.35;18.90;;;;;;;4.15;100.00;99750.47;6218859;28;20047;-73
2020/12/05 12:24:49;;;;;;;34.42;17.75;;;;;;;4.17;100.00;99746.03;6214796;28;20486;-73
2020/12/05 12:27:50;;;;;;;33.22;18.17;;;;;;;4.17;100.00;99728.66;6215416;28;20593;-73
2020/12/05 12:30:51;;;;;;;33.55;18.65;;;;;;;4.15;100.00;99746.09;6223526;28;20187;-72
2020/12/05 12:33:53;;;;;;;29.67;16.55;;;;;;;4.19;100.00;99772.81;6223706;28;20050;-73
2020/12/05 12:36:54;;;;;;;35.53;17.67;;;;;;;4.24;100.00;99765.66;6223477;28;20498;-73
2020/12/05 12:39:55;;;;;;;35.50;18.15;;;;;;;4.27;100.00;99760.31;6223057;28;20076;-72
2020/12/05 12:42:57;;;;;;;36.17;18.77;;;;;;;4.26;100.00;99787.22;6223730;28;20098;-72
2020/12/05 12:45:58;;;;;;;29.45;16.67;;;;;;;4.30;100.00;99802.66;6223062;28;20192;-73
2020/12/05 12:49:00;;;;;;;30.25;17.80;;;;;;;4.32;100.00;99807.81;6222703;28;20597;-73
2020/12/05 12:52:01;;;;;;;29.95;17.73;;;;;;;4.30;100.00;99813.03;6223479;28;20065;-72
2020/12/05 12:55:01;;;;;;;28.08;17.20;;;;;;;4.31;100.00;99804.34;6223024;28;20054;-73
2020/12/05 12:58:09;;;;;;;29.80;16.65;;;;;;;4.33;100.00;99809.47;6223253;28;20046;-73
2020/12/05 13:01:10;;;;;;;27.98;16.67;;;;;;;4.35;100.00;99818.06;6222785;28;20494;-73
2020/12/05 13:04:11;;;;;;;30.38;17.92;;;;;;;4.36;100.00;99818.88;6222290;28;20061;-73
2020/12/05 13:07:12;;;;;;;27.50;15.68;;;;;;;4.33;100.00;99823.31;6216919;28;20061;-72
2020/12/05 13:10:13;;;;;;;28.13;15.63;;;;;;;4.35;100.00;99822.41;6221708;28;20507;-73
2020/12/05 13:13:14;;;;;;;34.08;16.95;;;;;;;4.35;100.00;99835.41;6223121;28;20056;-73
2020/12/05 13:16:21;;;;;;;30.20;16.52;;;;;;;4.35;100.00;99825.00;6222336;28;20049;-71
2020/12/05 13:19:23;;;;;;;26.98;14.90;;;;;;;4.33;100.00;99820.72;6222192;28;20057;-72
2020/12/05 13:22:24;;;;;;;29.73;16.52;;;;;;;4.37;100.00;99815.41;6222819;28;20050;-72
2020/12/05 13:25:25;;;;;;;25.33;16.67;;;;;;;4.37;100.00;99818.84;6222426;28;20423;-72
2020/12/05 13:28:26;;;;;;;29.10;16.30;;;;;;;4.38;100.00;99840.50;6222633;28;20053;-73
2020/12/05 13:31:30;;;;;;;26.83;15.85;;;;;;;4.38;100.00;99835.28;6221991;28;20515;-73
2020/12/05 13:34:31;;;;;;;28.30;15.50;;;;;;;4.39;100.00;99843.03;6222342;28;20050;-73
2020/12/05 13:37:32;;;;;;;27.27;15.88;;;;;;;4.40;100.00;99862.06;6222188;28;20069;-72
2020/12/05 13:40:33;;;;;;;26.73;15.20;;;;;;;4.39;100.00;99858.63;6221657;28;20046;-72
2020/12/05 13:43:34;;;;;;;30.63;15.20;;;;;;;4.38;100.00;99838.75;6222380;28;20056;-73
2020/12/05 13:46:35;;;;;;;27.50;14.88;;;;;;;4.42;100.00;99842.91;6204930;28;20687;-72
2020/12/05 13:49:37;;;;;;;23.48;14.07;;;;;;;4.40;100.00;99836.06;6197294;28;20069;-72
2020/12/05 13:52:38;;;;;;;26.50;15.02;;;;;;;4.39;100.00;99834.38;6197910;28;20053;-73
2020/12/05 13:55:39;;;;;;;26.23;14.38;;;;;;;4.40;100.00;99847.31;6198912;28;20054;-71
2020/12/05 13:58:40;;;;;;;23.13;13.82;;;;;;;4.42;100.00;99845.50;6222736;23;20047;-75
2020/12/05 14:01:40;;;;;;;21.60;12.48;;;;;;;4.40;100.00;99862.06;6193968;28;20451;-75
2020/12/05 14:04:42;;;;;;;26.90;14.27;;;;;;;4.35;100.00;99877.88;6201567;28;20047;-74